sensor_id;sensor_type;location;lat;lon;timestamp;temperature;humidity
24638;DHT22;12773;50.162;8.548;2022-09-06T00:00:57;20.30;99.90
24638;DHT22;12773;50.162;8.548;2022-09-06T00:03:45;20.30;99.90
24638;DHT22;12773;50.162;8.548;2022-09-06T00:06:32;20.30;99.90
24638;DHT22;12773;50.162;8.548;2022-09-06T00:09:20;20.20;99.90
24638;DHT22;12773;50.162;8.548;2022-09-06T00:12:07;20.10;99.90
24638;DHT22;12773;50.162;8.548;2022-09-06T00:14:54;20.10;99.90
24638;DHT22;12773;50.162;8.548;2022-09-06T00:17:42;20.10;99.90
24638;DHT22;12773;50.162;8.548;2022-09-06T00:20:31;20.10;99.90
24638;DHT22;12773;50.162;8.548;2022-09-06T00:23:20;20.10;99.90
24638;DHT22;12773;50.162;8.548;2022-09-06T00:26:07;19.90;99.90
24638;DHT22;12773;50.162;8.548;2022-09-06T00:28:54;19.80;99.90
24638;DHT22;12773;50.162;8.548;2022-09-06T00:31:42;19.90;99.90
24638;DHT22;12773;50.162;8.548;2022-09-06T00:34:29;20.00;99.90
24638;DHT22;12773;50.162;8.548;2022-09-06T00:37:16;20.20;99.90
24638;DHT22;12773;50.162;8.548;2022-09-06T00:40:04;20.20;99.90
24638;DHT22;12773;50.162;8.548;2022-09-06T00:42:52;20.20;99.90
24638;DHT22;12773;50.162;8.548;2022-09-06T00:45:40;20.10;99.90
24638;DHT22;12773;50.162;8.548;2022-09-06T00:48:27;20.10;99.90
24638;DHT22;12773;50.162;8.548;2022-09-06T00:51:16;20.10;99.90
24638;DHT22;12773;50.162;8.548;2022-09-06T00:54:06;20.30;99.90
24638;DHT22;12773;50.162;8.548;2022-09-06T00:56:55;20.20;99.90
24638;DHT22;12773;50.162;8.548;2022-09-06T00:59:45;20.20;99.90
24638;DHT22;12773;50.162;8.548;2022-09-06T01:02:33;20.10;99.90
24638;DHT22;12773;50.162;8.548;2022-09-06T01:05:22;20.00;99.90
24638;DHT22;12773;50.162;8.548;2022-09-06T01:11:39;19.90;99.90
24638;DHT22;12773;50.162;8.548;2022-09-06T01:21:17;20.10;99.90
24638;DHT22;12773;50.162;8.548;2022-09-06T01:35:57;20.30;99.90
24638;DHT22;12773;50.162;8.548;2022-09-06T01:38:40;20.40;99.90
24638;DHT22;12773;50.162;8.548;2022-09-06T01:41:28;20.50;99.90
24638;DHT22;12773;50.162;8.548;2022-09-06T01:44:16;20.50;99.90
24638;DHT22;12773;50.162;8.548;2022-09-06T01:47:35;20.60;99.90
24638;DHT22;12773;50.162;8.548;2022-09-06T01:51:15;20.60;99.90
24638;DHT22;12773;50.162;8.548;2022-09-06T01:53:43;20.60;99.90
24638;DHT22;12773;50.162;8.548;2022-09-06T01:56:44;20.60;99.90
24638;DHT22;12773;50.162;8.548;2022-09-06T02:06:06;20.50;99.90
24638;DHT22;12773;50.162;8.548;2022-09-06T02:09:03;20.70;99.90
24638;DHT22;12773;50.162;8.548;2022-09-06T02:11:58;21.10;99.90
24638;DHT22;12773;50.162;8.548;2022-09-06T02:14:58;21.50;99.90
24638;DHT22;12773;50.162;8.548;2022-09-06T02:17:51;21.90;99.90
24638;DHT22;12773;50.162;8.548;2022-09-06T02:20:41;22.10;99.90
24638;DHT22;12773;50.162;8.548;2022-09-06T02:23:32;22.20;99.90
24638;DHT22;12773;50.162;8.548;2022-09-06T02:26:26;22.40;99.90
24638;DHT22;12773;50.162;8.548;2022-09-06T02:29:14;22.50;99.90
24638;DHT22;12773;50.162;8.548;2022-09-06T02:32:22;22.60;99.90
24638;DHT22;12773;50.162;8.548;2022-09-06T02:35:08;22.70;99.90
24638;DHT22;12773;50.162;8.548;2022-09-06T02:37:56;22.80;99.90
24638;DHT22;12773;50.162;8.548;2022-09-06T02:40:45;22.90;99.90
24638;DHT22;12773;50.162;8.548;2022-09-06T02:43:32;23.00;99.90
24638;DHT22;12773;50.162;8.548;2022-09-06T02:46:19;23.00;99.90
24638;DHT22;12773;50.162;8.548;2022-09-06T02:49:08;23.10;99.90
24638;DHT22;12773;50.162;8.548;2022-09-06T02:51:56;23.20;99.90
24638;DHT22;12773;50.162;8.548;2022-09-06T02:54:43;23.20;99.90
24638;DHT22;12773;50.162;8.548;2022-09-06T02:57:30;23.30;99.90
24638;DHT22;12773;50.162;8.548;2022-09-06T03:00:18;23.30;99.90
24638;DHT22;12773;50.162;8.548;2022-09-06T03:03:06;23.30;99.90
24638;DHT22;12773;50.162;8.548;2022-09-06T03:05:54;23.30;99.90
24638;DHT22;12773;50.162;8.548;2022-09-06T03:08:41;23.30;99.90
24638;DHT22;12773;50.162;8.548;2022-09-06T03:11:29;23.20;99.90
24638;DHT22;12773;50.162;8.548;2022-09-06T03:14:16;23.20;99.90
24638;DHT22;12773;50.162;8.548;2022-09-06T03:17:05;23.20;99.90
24638;DHT22;12773;50.162;8.548;2022-09-06T03:19:52;23.20;99.90
24638;DHT22;12773;50.162;8.548;2022-09-06T03:22:40;23.00;99.90
24638;DHT22;12773;50.162;8.548;2022-09-06T03:25:28;22.60;99.90
24638;DHT22;12773;50.162;8.548;2022-09-06T03:28:16;22.40;99.90
24638;DHT22;12773;50.162;8.548;2022-09-06T03:31:03;22.20;99.90
24638;DHT22;12773;50.162;8.548;2022-09-06T03:33:51;22.20;99.90
24638;DHT22;12773;50.162;8.548;2022-09-06T03:36:39;22.10;99.90
24638;DHT22;12773;50.162;8.548;2022-09-06T03:39:26;22.00;99.90
24638;DHT22;12773;50.162;8.548;2022-09-06T03:42:14;21.90;99.90
24638;DHT22;12773;50.162;8.548;2022-09-06T03:45:02;21.90;99.90
24638;DHT22;12773;50.162;8.548;2022-09-06T03:47:49;22.00;99.90
24638;DHT22;12773;50.162;8.548;2022-09-06T03:50:37;22.10;99.90
24638;DHT22;12773;50.162;8.548;2022-09-06T03:53:25;22.10;99.90
24638;DHT22;12773;50.162;8.548;2022-09-06T03:56:14;22.30;99.90
24638;DHT22;12773;50.162;8.548;2022-09-06T03:59:01;22.20;99.90
24638;DHT22;12773;50.162;8.548;2022-09-06T04:01:49;22.10;99.90
24638;DHT22;12773;50.162;8.548;2022-09-06T04:04:37;22.00;99.90
24638;DHT22;12773;50.162;8.548;2022-09-06T04:07:24;22.10;99.90
24638;DHT22;12773;50.162;8.548;2022-09-06T04:10:11;22.20;99.90
24638;DHT22;12773;50.162;8.548;2022-09-06T04:12:59;22.10;99.90
24638;DHT22;12773;50.162;8.548;2022-09-06T04:15:47;21.70;99.90
24638;DHT22;12773;50.162;8.548;2022-09-06T04:18:34;21.60;99.90
24638;DHT22;12773;50.162;8.548;2022-09-06T04:21:22;21.90;99.90
24638;DHT22;12773;50.162;8.548;2022-09-06T04:24:10;22.00;99.90
24638;DHT22;12773;50.162;8.548;2022-09-06T04:26:57;22.20;99.90
24638;DHT22;12773;50.162;8.548;2022-09-06T04:29:44;22.20;99.90
24638;DHT22;12773;50.162;8.548;2022-09-06T04:32:32;22.30;99.90
24638;DHT22;12773;50.162;8.548;2022-09-06T04:35:19;22.30;99.90
24638;DHT22;12773;50.162;8.548;2022-09-06T04:38:07;22.20;99.90
24638;DHT22;12773;50.162;8.548;2022-09-06T04:40:54;22.10;99.90
24638;DHT22;12773;50.162;8.548;2022-09-06T04:43:42;22.00;99.90
24638;DHT22;12773;50.162;8.548;2022-09-06T04:46:30;21.90;99.90
24638;DHT22;12773;50.162;8.548;2022-09-06T04:49:17;21.70;99.90
24638;DHT22;12773;50.162;8.548;2022-09-06T04:52:24;21.60;99.90
24638;DHT22;12773;50.162;8.548;2022-09-06T04:55:13;21.50;99.90
24638;DHT22;12773;50.162;8.548;2022-09-06T04:58:01;21.30;99.90
24638;DHT22;12773;50.162;8.548;2022-09-06T05:00:48;21.20;99.90
24638;DHT22;12773;50.162;8.548;2022-09-06T05:03:36;21.20;99.90
24638;DHT22;12773;50.162;8.548;2022-09-06T05:06:24;21.00;99.90
24638;DHT22;12773;50.162;8.548;2022-09-06T05:09:12;20.90;99.90
24638;DHT22;12773;50.162;8.548;2022-09-06T05:12:00;20.90;99.90
24638;DHT22;12773;50.162;8.548;2022-09-06T05:14:48;20.80;99.90
24638;DHT22;12773;50.162;8.548;2022-09-06T05:17:35;20.70;99.90
24638;DHT22;12773;50.162;8.548;2022-09-06T05:20:22;20.80;99.90
24638;DHT22;12773;50.162;8.548;2022-09-06T05:23:10;20.90;99.90
24638;DHT22;12773;50.162;8.548;2022-09-06T05:25:58;20.80;99.90
24638;DHT22;12773;50.162;8.548;2022-09-06T05:28:45;20.80;99.90
24638;DHT22;12773;50.162;8.548;2022-09-06T05:31:34;20.70;99.90
24638;DHT22;12773;50.162;8.548;2022-09-06T05:34:21;20.60;99.90
24638;DHT22;12773;50.162;8.548;2022-09-06T05:37:09;20.60;99.90
24638;DHT22;12773;50.162;8.548;2022-09-06T05:39:56;20.50;99.90
24638;DHT22;12773;50.162;8.548;2022-09-06T05:42:44;20.50;99.90
24638;DHT22;12773;50.162;8.548;2022-09-06T05:45:32;20.50;99.90
24638;DHT22;12773;50.162;8.548;2022-09-06T05:48:19;20.50;99.90
24638;DHT22;12773;50.162;8.548;2022-09-06T05:51:09;20.50;99.90
24638;DHT22;12773;50.162;8.548;2022-09-06T05:53:59;20.60;99.90
24638;DHT22;12773;50.162;8.548;2022-09-06T05:56:47;20.70;99.90
24638;DHT22;12773;50.162;8.548;2022-09-06T05:59:34;20.80;99.90
24638;DHT22;12773;50.162;8.548;2022-09-06T06:02:22;20.90;99.90
24638;DHT22;12773;50.162;8.548;2022-09-06T06:05:10;21.00;99.90
24638;DHT22;12773;50.162;8.548;2022-09-06T06:07:57;21.10;99.90
24638;DHT22;12773;50.162;8.548;2022-09-06T06:10:45;21.20;99.90
24638;DHT22;12773;50.162;8.548;2022-09-06T06:13:32;21.20;99.90
24638;DHT22;12773;50.162;8.548;2022-09-06T06:16:22;21.20;99.90
24638;DHT22;12773;50.162;8.548;2022-09-06T06:19:10;21.20;99.90
24638;DHT22;12773;50.162;8.548;2022-09-06T06:21:57;21.10;99.90
24638;DHT22;12773;50.162;8.548;2022-09-06T06:24:45;21.20;99.90
24638;DHT22;12773;50.162;8.548;2022-09-06T06:27:32;21.30;99.90
24638;DHT22;12773;50.162;8.548;2022-09-06T06:30:22;21.60;99.90
24638;DHT22;12773;50.162;8.548;2022-09-06T06:33:09;21.80;99.90
24638;DHT22;12773;50.162;8.548;2022-09-06T06:36:01;22.00;99.90
24638;DHT22;12773;50.162;8.548;2022-09-06T06:38:50;22.00;99.90
24638;DHT22;12773;50.162;8.548;2022-09-06T06:41:38;22.10;99.90
24638;DHT22;12773;50.162;8.548;2022-09-06T06:44:26;22.30;99.90
24638;DHT22;12773;50.162;8.548;2022-09-06T06:47:13;22.50;99.90
24638;DHT22;12773;50.162;8.548;2022-09-06T06:50:01;22.70;99.90
24638;DHT22;12773;50.162;8.548;2022-09-06T06:52:48;22.70;99.90
24638;DHT22;12773;50.162;8.548;2022-09-06T06:55:35;22.70;99.90
24638;DHT22;12773;50.162;8.548;2022-09-06T06:58:23;22.70;99.90
24638;DHT22;12773;50.162;8.548;2022-09-06T07:01:11;22.80;99.90
24638;DHT22;12773;50.162;8.548;2022-09-06T07:03:59;22.80;99.90
24638;DHT22;12773;50.162;8.548;2022-09-06T07:06:52;22.70;99.90
24638;DHT22;12773;50.162;8.548;2022-09-06T07:09:41;22.80;99.90
24638;DHT22;12773;50.162;8.548;2022-09-06T07:12:30;22.80;99.90
24638;DHT22;12773;50.162;8.548;2022-09-06T07:15:18;22.90;99.90
24638;DHT22;12773;50.162;8.548;2022-09-06T07:18:05;22.80;99.90
24638;DHT22;12773;50.162;8.548;2022-09-06T07:20:55;22.80;99.90
24638;DHT22;12773;50.162;8.548;2022-09-06T07:23:44;22.90;99.90
24638;DHT22;12773;50.162;8.548;2022-09-06T07:26:34;23.00;99.90
24638;DHT22;12773;50.162;8.548;2022-09-06T07:29:21;23.10;99.90
24638;DHT22;12773;50.162;8.548;2022-09-06T07:32:09;23.20;99.90
24638;DHT22;12773;50.162;8.548;2022-09-06T07:34:56;23.40;99.90
24638;DHT22;12773;50.162;8.548;2022-09-06T07:37:55;23.40;99.90
24638;DHT22;12773;50.162;8.548;2022-09-06T07:40:43;23.20;99.90
24638;DHT22;12773;50.162;8.548;2022-09-06T07:43:34;23.30;99.90
24638;DHT22;12773;50.162;8.548;2022-09-06T07:46:21;23.30;99.90
24638;DHT22;12773;50.162;8.548;2022-09-06T07:49:08;23.30;99.90
24638;DHT22;12773;50.162;8.548;2022-09-06T07:51:56;23.30;99.90
24638;DHT22;12773;50.162;8.548;2022-09-06T07:54:43;23.50;99.90
24638;DHT22;12773;50.162;8.548;2022-09-06T07:57:30;23.80;99.90
24638;DHT22;12773;50.162;8.548;2022-09-06T08:00:18;23.70;99.90
24638;DHT22;12773;50.162;8.548;2022-09-06T08:03:05;23.70;99.90
24638;DHT22;12773;50.162;8.548;2022-09-06T08:05:53;23.60;99.90
24638;DHT22;12773;50.162;8.548;2022-09-06T08:08:42;23.50;99.90
24638;DHT22;12773;50.162;8.548;2022-09-06T08:11:33;23.70;99.90
24638;DHT22;12773;50.162;8.548;2022-09-06T08:14:20;23.90;99.90
24638;DHT22;12773;50.162;8.548;2022-09-06T08:17:08;24.00;99.90
24638;DHT22;12773;50.162;8.548;2022-09-06T08:19:55;24.00;99.90
24638;DHT22;12773;50.162;8.548;2022-09-06T08:22:43;24.10;99.90
24638;DHT22;12773;50.162;8.548;2022-09-06T08:25:30;24.30;99.90
24638;DHT22;12773;50.162;8.548;2022-09-06T08:28:17;24.20;99.90
24638;DHT22;12773;50.162;8.548;2022-09-06T08:31:14;24.20;99.90
24638;DHT22;12773;50.162;8.548;2022-09-06T08:34:01;24.10;99.90
24638;DHT22;12773;50.162;8.548;2022-09-06T08:36:49;24.40;99.90
24638;DHT22;12773;50.162;8.548;2022-09-06T08:39:36;24.40;99.90
24638;DHT22;12773;50.162;8.548;2022-09-06T08:42:23;24.50;99.90
24638;DHT22;12773;50.162;8.548;2022-09-06T08:45:14;24.50;99.90
24638;DHT22;12773;50.162;8.548;2022-09-06T08:48:02;24.60;99.90
24638;DHT22;12773;50.162;8.548;2022-09-06T08:50:56;24.60;99.90
24638;DHT22;12773;50.162;8.548;2022-09-06T08:53:43;24.50;99.90
24638;DHT22;12773;50.162;8.548;2022-09-06T08:56:51;24.60;99.90
24638;DHT22;12773;50.162;8.548;2022-09-06T08:59:41;24.70;99.90
24638;DHT22;12773;50.162;8.548;2022-09-06T09:02:21;25.00;99.90
24638;DHT22;12773;50.162;8.548;2022-09-06T09:05:18;25.20;99.90
24638;DHT22;12773;50.162;8.548;2022-09-06T09:08:18;25.20;99.90
24638;DHT22;12773;50.162;8.548;2022-09-06T09:11:13;25.30;99.90
24638;DHT22;12773;50.162;8.548;2022-09-06T09:16:53;25.40;99.90
24638;DHT22;12773;50.162;8.548;2022-09-06T09:19:41;25.50;99.90
24638;DHT22;12773;50.162;8.548;2022-09-06T09:22:29;25.60;99.90
24638;DHT22;12773;50.162;8.548;2022-09-06T09:25:20;25.90;99.90
24638;DHT22;12773;50.162;8.548;2022-09-06T09:28:15;26.10;99.90
24638;DHT22;12773;50.162;8.548;2022-09-06T09:30:57;26.20;99.90
24638;DHT22;12773;50.162;8.548;2022-09-06T09:33:45;26.40;99.90
24638;DHT22;12773;50.162;8.548;2022-09-06T09:36:32;26.70;99.90
24638;DHT22;12773;50.162;8.548;2022-09-06T09:39:20;27.00;99.90
24638;DHT22;12773;50.162;8.548;2022-09-06T09:42:08;27.50;99.90
24638;DHT22;12773;50.162;8.548;2022-09-06T09:44:56;27.50;99.90
24638;DHT22;12773;50.162;8.548;2022-09-06T09:47:44;27.60;99.90
24638;DHT22;12773;50.162;8.548;2022-09-06T09:50:34;27.60;99.90
24638;DHT22;12773;50.162;8.548;2022-09-06T09:53:22;27.70;99.90
24638;DHT22;12773;50.162;8.548;2022-09-06T09:56:13;28.00;99.90
24638;DHT22;12773;50.162;8.548;2022-09-06T09:59:14;28.20;99.90
24638;DHT22;12773;50.162;8.548;2022-09-06T10:02:00;28.10;99.30
24638;DHT22;12773;50.162;8.548;2022-09-06T10:04:51;28.20;99.60
24638;DHT22;12773;50.162;8.548;2022-09-06T10:10:37;28.80;98.60
24638;DHT22;12773;50.162;8.548;2022-09-06T10:13:24;28.70;98.60
24638;DHT22;12773;50.162;8.548;2022-09-06T10:16:13;28.70;98.50
24638;DHT22;12773;50.162;8.548;2022-09-06T10:19:03;29.10;98.70
24638;DHT22;12773;50.162;8.548;2022-09-06T10:21:54;29.10;97.60
24638;DHT22;12773;50.162;8.548;2022-09-06T10:28:29;29.40;97.20
24638;DHT22;12773;50.162;8.548;2022-09-06T10:31:50;29.30;96.60
24638;DHT22;12773;50.162;8.548;2022-09-06T10:35:02;29.60;97.10
24638;DHT22;12773;50.162;8.548;2022-09-06T10:37:58;29.60;96.50
24638;DHT22;12773;50.162;8.548;2022-09-06T10:43:49;29.50;95.80
24638;DHT22;12773;50.162;8.548;2022-09-06T10:46:37;29.60;95.30
24638;DHT22;12773;50.162;8.548;2022-09-06T10:49:26;29.70;95.30
24638;DHT22;12773;50.162;8.548;2022-09-06T10:52:22;30.00;94.90
24638;DHT22;12773;50.162;8.548;2022-09-06T10:55:05;30.00;94.60
24638;DHT22;12773;50.162;8.548;2022-09-06T10:57:57;30.30;94.40
24638;DHT22;12773;50.162;8.548;2022-09-06T11:00:49;30.30;92.80
24638;DHT22;12773;50.162;8.548;2022-09-06T11:03:41;30.40;93.30
24638;DHT22;12773;50.162;8.548;2022-09-06T11:06:35;30.40;92.70
24638;DHT22;12773;50.162;8.548;2022-09-06T11:09:33;30.30;92.90
24638;DHT22;12773;50.162;8.548;2022-09-06T11:12:36;30.50;91.70
24638;DHT22;12773;50.162;8.548;2022-09-06T11:15:25;30.50;91.60
24638;DHT22;12773;50.162;8.548;2022-09-06T11:30:15;31.90;88.30
24638;DHT22;12773;50.162;8.548;2022-09-06T11:33:20;32.00;85.70
24638;DHT22;12773;50.162;8.548;2022-09-06T11:36:28;32.00;85.40
24638;DHT22;12773;50.162;8.548;2022-09-06T11:39:28;32.10;84.10
24638;DHT22;12773;50.162;8.548;2022-09-06T11:42:40;32.20;82.70
24638;DHT22;12773;50.162;8.548;2022-09-06T11:45:48;32.60;82.60
24638;DHT22;12773;50.162;8.548;2022-09-06T11:51:44;32.60;80.10
24638;DHT22;12773;50.162;8.548;2022-09-06T11:54:39;32.30;79.80
24638;DHT22;12773;50.162;8.548;2022-09-06T11:57:25;32.10;78.50
24638;DHT22;12773;50.162;8.548;2022-09-06T12:00:21;32.10;79.60
24638;DHT22;12773;50.162;8.548;2022-09-06T12:09:27;32.80;76.30
24638;DHT22;12773;50.162;8.548;2022-09-06T12:15:43;33.20;75.50
24638;DHT22;12773;50.162;8.548;2022-09-06T12:21:43;32.70;71.80
24638;DHT22;12773;50.162;8.548;2022-09-06T12:27:25;32.80;73.60
24638;DHT22;12773;50.162;8.548;2022-09-06T12:30:28;32.60;71.30
24638;DHT22;12773;50.162;8.548;2022-09-06T12:33:13;32.90;72.40
24638;DHT22;12773;50.162;8.548;2022-09-06T12:36:14;33.10;70.00
24638;DHT22;12773;50.162;8.548;2022-09-06T12:39:07;32.90;69.60
24638;DHT22;12773;50.162;8.548;2022-09-06T12:41:54;33.10;70.70
24638;DHT22;12773;50.162;8.548;2022-09-06T12:44:47;33.50;69.30
24638;DHT22;12773;50.162;8.548;2022-09-06T12:47:36;33.60;67.30
24638;DHT22;12773;50.162;8.548;2022-09-06T12:50:27;33.20;65.50
24638;DHT22;12773;50.162;8.548;2022-09-06T12:53:19;32.90;66.80
24638;DHT22;12773;50.162;8.548;2022-09-06T12:56:10;32.80;65.90
24638;DHT22;12773;50.162;8.548;2022-09-06T12:59:20;32.80;66.90
24638;DHT22;12773;50.162;8.548;2022-09-06T13:02:11;33.00;66.50
24638;DHT22;12773;50.162;8.548;2022-09-06T13:05:05;33.00;66.10
24638;DHT22;12773;50.162;8.548;2022-09-06T13:07:55;32.90;66.60
24638;DHT22;12773;50.162;8.548;2022-09-06T13:10:44;33.20;66.10
24638;DHT22;12773;50.162;8.548;2022-09-06T13:13:33;32.70;65.30
24638;DHT22;12773;50.162;8.548;2022-09-06T13:16:22;32.80;65.70
24638;DHT22;12773;50.162;8.548;2022-09-06T13:19:34;32.90;64.20
24638;DHT22;12773;50.162;8.548;2022-09-06T13:22:43;32.80;63.50
24638;DHT22;12773;50.162;8.548;2022-09-06T13:25:27;33.10;64.10
24638;DHT22;12773;50.162;8.548;2022-09-06T13:28:30;32.90;63.40
24638;DHT22;12773;50.162;8.548;2022-09-06T13:31:19;32.80;64.20
24638;DHT22;12773;50.162;8.548;2022-09-06T13:34:07;32.80;63.80
24638;DHT22;12773;50.162;8.548;2022-09-06T13:37:04;32.60;63.40
24638;DHT22;12773;50.162;8.548;2022-09-06T13:39:51;32.70;63.00
24638;DHT22;12773;50.162;8.548;2022-09-06T13:42:39;32.80;63.30
24638;DHT22;12773;50.162;8.548;2022-09-06T13:45:28;32.80;61.90
24638;DHT22;12773;50.162;8.548;2022-09-06T13:48:16;33.00;62.80
24638;DHT22;12773;50.162;8.548;2022-09-06T13:51:06;33.20;62.80
24638;DHT22;12773;50.162;8.548;2022-09-06T13:54:04;32.90;61.50
24638;DHT22;12773;50.162;8.548;2022-09-06T13:56:53;32.80;61.00
24638;DHT22;12773;50.162;8.548;2022-09-06T13:59:41;32.90;59.60
24638;DHT22;12773;50.162;8.548;2022-09-06T14:02:29;32.90;59.80
24638;DHT22;12773;50.162;8.548;2022-09-06T14:05:16;32.90;60.10
24638;DHT22;12773;50.162;8.548;2022-09-06T14:08:04;33.00;60.20
24638;DHT22;12773;50.162;8.548;2022-09-06T14:10:51;32.70;60.60
24638;DHT22;12773;50.162;8.548;2022-09-06T14:13:39;33.00;62.80
24638;DHT22;12773;50.162;8.548;2022-09-06T14:16:26;33.20;61.10
24638;DHT22;12773;50.162;8.548;2022-09-06T14:19:14;33.20;59.30
24638;DHT22;12773;50.162;8.548;2022-09-06T14:22:01;33.20;59.40
24638;DHT22;12773;50.162;8.548;2022-09-06T14:24:49;33.10;59.30
24638;DHT22;12773;50.162;8.548;2022-09-06T14:27:36;32.90;60.10
24638;DHT22;12773;50.162;8.548;2022-09-06T14:30:23;32.90;60.10
24638;DHT22;12773;50.162;8.548;2022-09-06T14:33:10;33.20;60.40
24638;DHT22;12773;50.162;8.548;2022-09-06T14:35:58;33.60;59.60
24638;DHT22;12773;50.162;8.548;2022-09-06T14:38:46;33.90;59.40
24638;DHT22;12773;50.162;8.548;2022-09-06T14:41:34;33.90;59.10
24638;DHT22;12773;50.162;8.548;2022-09-06T14:44:23;33.80;58.00
24638;DHT22;12773;50.162;8.548;2022-09-06T14:47:11;33.90;58.30
24638;DHT22;12773;50.162;8.548;2022-09-06T14:49:59;34.10;58.30
24638;DHT22;12773;50.162;8.548;2022-09-06T14:52:47;34.00;58.50
24638;DHT22;12773;50.162;8.548;2022-09-06T14:55:34;33.60;58.30
24638;DHT22;12773;50.162;8.548;2022-09-06T14:58:23;33.60;57.80
24638;DHT22;12773;50.162;8.548;2022-09-06T15:01:13;33.70;58.40
24638;DHT22;12773;50.162;8.548;2022-09-06T15:04:02;33.50;57.40
24638;DHT22;12773;50.162;8.548;2022-09-06T15:06:49;33.50;57.20
24638;DHT22;12773;50.162;8.548;2022-09-06T15:09:36;33.10;58.40
24638;DHT22;12773;50.162;8.548;2022-09-06T15:12:24;32.80;59.20
24638;DHT22;12773;50.162;8.548;2022-09-06T15:15:11;32.50;59.50
24638;DHT22;12773;50.162;8.548;2022-09-06T15:17:59;32.20;60.00
24638;DHT22;12773;50.162;8.548;2022-09-06T15:20:46;32.00;60.50
24638;DHT22;12773;50.162;8.548;2022-09-06T15:23:34;31.60;59.60
24638;DHT22;12773;50.162;8.548;2022-09-06T15:26:22;31.30;59.80
24638;DHT22;12773;50.162;8.548;2022-09-06T15:29:10;31.30;61.10
24638;DHT22;12773;50.162;8.548;2022-09-06T15:31:58;31.10;60.60
24638;DHT22;12773;50.162;8.548;2022-09-06T15:34:46;31.10;61.10
24638;DHT22;12773;50.162;8.548;2022-09-06T15:37:33;31.10;61.80
24638;DHT22;12773;50.162;8.548;2022-09-06T15:40:21;31.10;62.00
24638;DHT22;12773;50.162;8.548;2022-09-06T15:43:09;31.00;62.80
24638;DHT22;12773;50.162;8.548;2022-09-06T15:45:57;30.90;63.50
24638;DHT22;12773;50.162;8.548;2022-09-06T15:48:50;30.90;64.20
24638;DHT22;12773;50.162;8.548;2022-09-06T15:51:39;30.80;65.20
24638;DHT22;12773;50.162;8.548;2022-09-06T15:54:28;30.60;66.00
24638;DHT22;12773;50.162;8.548;2022-09-06T15:57:34;30.60;66.40
24638;DHT22;12773;50.162;8.548;2022-09-06T16:00:22;30.60;63.90
24638;DHT22;12773;50.162;8.548;2022-09-06T16:03:10;30.50;63.70
24638;DHT22;12773;50.162;8.548;2022-09-06T16:06:10;30.30;63.90
24638;DHT22;12773;50.162;8.548;2022-09-06T16:09:04;30.10;64.40
24638;DHT22;12773;50.162;8.548;2022-09-06T16:11:51;30.00;65.10
24638;DHT22;12773;50.162;8.548;2022-09-06T16:14:39;29.70;65.60
24638;DHT22;12773;50.162;8.548;2022-09-06T16:17:26;29.60;66.20
24638;DHT22;12773;50.162;8.548;2022-09-06T16:20:15;29.50;66.10
24638;DHT22;12773;50.162;8.548;2022-09-06T16:23:02;29.30;67.60
24638;DHT22;12773;50.162;8.548;2022-09-06T16:25:53;29.10;67.50
24638;DHT22;12773;50.162;8.548;2022-09-06T16:28:40;29.00;67.30
24638;DHT22;12773;50.162;8.548;2022-09-06T16:31:28;28.90;67.00
24638;DHT22;12773;50.162;8.548;2022-09-06T16:34:16;28.80;66.00
24638;DHT22;12773;50.162;8.548;2022-09-06T16:37:03;28.60;64.80
24638;DHT22;12773;50.162;8.548;2022-09-06T16:39:52;28.60;63.70
24638;DHT22;12773;50.162;8.548;2022-09-06T16:42:41;28.40;63.00
24638;DHT22;12773;50.162;8.548;2022-09-06T16:45:29;28.40;61.60
24638;DHT22;12773;50.162;8.548;2022-09-06T16:48:17;28.30;61.40
24638;DHT22;12773;50.162;8.548;2022-09-06T16:54:15;28.40;61.00
24638;DHT22;12773;50.162;8.548;2022-09-06T16:57:04;28.40;63.00
24638;DHT22;12773;50.162;8.548;2022-09-06T16:59:51;28.00;66.50
24638;DHT22;12773;50.162;8.548;2022-09-06T17:02:38;27.50;73.30
24638;DHT22;12773;50.162;8.548;2022-09-06T17:05:27;27.00;78.70
24638;DHT22;12773;50.162;8.548;2022-09-06T17:08:15;26.60;83.50
24638;DHT22;12773;50.162;8.548;2022-09-06T17:11:08;26.20;87.50
24638;DHT22;12773;50.162;8.548;2022-09-06T17:13:56;25.70;93.80
24638;DHT22;12773;50.162;8.548;2022-09-06T17:16:43;25.20;99.90
24638;DHT22;12773;50.162;8.548;2022-09-06T17:19:49;25.00;99.90
24638;DHT22;12773;50.162;8.548;2022-09-06T17:22:37;24.50;99.90
24638;DHT22;12773;50.162;8.548;2022-09-06T17:25:24;24.00;99.90
24638;DHT22;12773;50.162;8.548;2022-09-06T17:28:12;23.70;99.90
24638;DHT22;12773;50.162;8.548;2022-09-06T17:31:03;23.40;99.90
24638;DHT22;12773;50.162;8.548;2022-09-06T17:33:50;23.20;99.90
24638;DHT22;12773;50.162;8.548;2022-09-06T17:36:38;22.90;99.90
24638;DHT22;12773;50.162;8.548;2022-09-06T17:39:26;22.30;99.90
24638;DHT22;12773;50.162;8.548;2022-09-06T17:42:13;21.90;99.90
24638;DHT22;12773;50.162;8.548;2022-09-06T17:45:01;21.70;99.90
24638;DHT22;12773;50.162;8.548;2022-09-06T17:47:48;21.60;99.90
24638;DHT22;12773;50.162;8.548;2022-09-06T17:50:36;21.60;99.90
24638;DHT22;12773;50.162;8.548;2022-09-06T17:53:25;21.60;99.90
24638;DHT22;12773;50.162;8.548;2022-09-06T17:56:15;21.70;99.90
24638;DHT22;12773;50.162;8.548;2022-09-06T17:59:11;21.80;99.90
24638;DHT22;12773;50.162;8.548;2022-09-06T18:02:01;21.90;99.90
24638;DHT22;12773;50.162;8.548;2022-09-06T18:04:49;21.80;99.90
24638;DHT22;12773;50.162;8.548;2022-09-06T18:07:36;21.80;99.90
24638;DHT22;12773;50.162;8.548;2022-09-06T18:10:24;21.80;99.90
24638;DHT22;12773;50.162;8.548;2022-09-06T18:13:11;21.70;99.90
24638;DHT22;12773;50.162;8.548;2022-09-06T18:15:59;21.70;99.90
24638;DHT22;12773;50.162;8.548;2022-09-06T18:18:53;21.80;99.90
24638;DHT22;12773;50.162;8.548;2022-09-06T18:21:41;21.90;99.90
24638;DHT22;12773;50.162;8.548;2022-09-06T18:24:28;22.00;99.90
24638;DHT22;12773;50.162;8.548;2022-09-06T18:27:16;22.00;99.90
24638;DHT22;12773;50.162;8.548;2022-09-06T18:30:04;21.90;99.90
24638;DHT22;12773;50.162;8.548;2022-09-06T18:32:53;21.70;99.90
24638;DHT22;12773;50.162;8.548;2022-09-06T18:35:40;21.70;99.90
24638;DHT22;12773;50.162;8.548;2022-09-06T18:38:27;21.80;99.90
24638;DHT22;12773;50.162;8.548;2022-09-06T18:41:15;21.90;99.90
24638;DHT22;12773;50.162;8.548;2022-09-06T18:44:21;22.00;99.90
24638;DHT22;12773;50.162;8.548;2022-09-06T18:47:09;22.10;99.90
24638;DHT22;12773;50.162;8.548;2022-09-06T18:49:57;22.00;99.90
24638;DHT22;12773;50.162;8.548;2022-09-06T18:52:45;21.70;99.90
24638;DHT22;12773;50.162;8.548;2022-09-06T18:55:37;21.40;99.90
24638;DHT22;12773;50.162;8.548;2022-09-06T18:58:26;21.40;99.90
24638;DHT22;12773;50.162;8.548;2022-09-06T19:01:15;21.30;99.90
24638;DHT22;12773;50.162;8.548;2022-09-06T19:04:04;21.20;99.90
24638;DHT22;12773;50.162;8.548;2022-09-06T19:06:52;21.10;99.90